METAR Data
IDs: Format: Raw Decoded Include TAF

Data at: 2302 UTC 25 Oct 2021

PAOO 252256Z AUTO 29005KT 10SM FEW017 BKN035 OVC043 M01/M03 A2949 RMK AO2 UPB20E25B46E49SNB25E46 SLP993 P0000 T10061033 FZRANO TSNO $
PAOO 252241Z AUTO 27007KT 9SM -SN SCT025 BKN034 OVC041 M01/M03 A2950 RMK AO2 UPB20E25SNB25 P0000 FZRANO TSNO $
PAOO 252217Z AUTO 31005KT 10SM BKN027 OVC038 M01/M04 A2949 RMK AO2 FZRANO TSNO $
PAOO 252156Z AUTO 00000KT 10SM FEW025 OVC043 01/M04 A2949 RMK AO2 SLP992 T00111039 FZRANO TSNO $
PAOO 252056Z AUTO 00000KT 10SM CLR M02/M04 A2949 RMK AO2 SLP993 T10221044 51005 FZRANO TSNO $
PAOO 251956Z AUTO 00000KT 10SM CLR M04/M06 A2949 RMK AO2 SLP992 T10441056 FZRANO TSNO $
PAOO 251856Z AUTO 36003KT 10SM CLR M06/M07 A2949 RMK AO2 SLP991 T10611067 FZRANO TSNO $
PAOO 251756Z AUTO 36003KT 10SM CLR M06/M07 A2948 RMK AO2 SLP988 T10561067 11022 21067 51007 FZRANO TSNO $
PAOO 251656Z AUTO 36006KT 10SM CLR M06/M07 A2947 RMK AO2 SLP986 T10561072 FZRANO TSNO $
PAOO 251556Z AUTO 01007KT 10SM FEW047 M04/M06 A2946 RMK AO2 SLP982 T10391056 FZRANO TSNO $
PAOO 251456Z AUTO 35006KT 10SM OVC045 M03/M05 A2946 RMK AO2 SLP980 T10331050 56000 FZRANO TSNO $
PAOO 251356Z AUTO 35006KT 10SM OVC043 M03/M04 A2946 RMK AO2 SLP981 T10281039 FZRANO TSNO $
PAOO 251256Z AUTO 33007KT 10SM OVC041 M03/M05 A2945 RMK AO2 SLP978 T10331050 FZRANO TSNO $
PAOO 251156Z AUTO 34003KT 10SM CLR M06/M07 A2946 RMK AO2 SLP980 T10561072 11017 21056 56003 FZRANO TSNO $
PAOO 251056Z AUTO 00000KT 10SM BKN044 M05/M06 A2946 RMK AO2 SLP980 T10501056 FZRANO TSNO $
PAOO 250856Z AUTO 31005KT 10SM CLR M05/M06 A2947 RMK AO2 SLP984 T10501056 400281056 55002 FZRANO TSNO $
PAOO 250756Z AUTO 32005KT 10SM FEW049 M04/M05 A2947 RMK AO2 SLP983 T10391050 FZRANO TSNO $
PAOO 250656Z AUTO 34007KT 10SM SCT055 M04/M05 A2947 RMK AO2 SLP984 T10391050 FZRANO TSNO $
PAOO 250556Z AUTO 33004KT 10SM OVC046 M02/M04 A2948 RMK AO2 SNE12 SLP986 P0000 60000 T10221039 10017 21033 56007 FZRANO TSNO $
PAOO 250456Z AUTO 30005KT 8SM -SN FEW024 SCT029 OVC037 M02/M03 A2948 RMK AO2 SNB46 SLP989 P0000 T10221033 FZRANO TSNO $
PAOO 250356Z AUTO 32004KT 10SM BKN029 M01/M03 A2949 RMK AO2 SLP991 T10111033 FZRANO TSNO $
PAOO 250256Z AUTO 32003KT 10SM FEW046 M02/M03 A2950 RMK AO2 SLP993 T10171033 56016 FZRANO TSNO $
PAOO 250156Z AUTO 34005KT 10SM BKN045 00/M03 A2950 RMK AO2 SLP994 T00001028 FZRANO TSNO $
PAOO 250056Z AUTO 31008KT 10SM FEW033 02/M05 A2952 RMK AO2 SLP001 T00171050 FZRANO TSNO $
PAOO 242356Z AUTO 27006KT 10SM CLR 02/M06 A2954 RMK AO2 SLP009 60000 T00171061 10028 21011 58017 FZRANO TSNO $
PAOO 242256Z AUTO 28011KT 10SM SCT034 SCT050 02/M04 A2957 RMK AO2 SLP019 T00171044 FZRANO TSNO $
PAOO 242056Z AUTO 25006KT 10SM SCT050 01/M03 A2959 RMK AO2 SLP026 60000 T00111033 58009 FZRANO TSNO $
PAOO 241956Z AUTO 16004KT 10SM SCT042 SCT050 BKN060 M01/M02 A2960 RMK AO2 UPB29E44SNE17 SLP030 P0000 T10061017 FZRANO TSNO $
PAOO 241856Z AUTO 31008KT 4SM -SN BR FEW020 BKN033 OVC065 M01/M02 A2962 RMK AO2 SNB05 SLP034 P0000 T10111022 FZRANO TSNO $
PAOO 241756Z AUTO 27005KT 10SM FEW035 BKN044 OVC060 M01/M04 A2962 RMK AO2 UPB49E51SNB20E49 SLP035 P0000 60000 T10111044 10006 21017 56007 FZRANO TSNO $
PAOO 241656Z AUTO 26008KT 10SM SCT045 M01/M04 A2962 RMK AO2 SLP037 T10111044 FZRANO TSNO $
PAOO 241556Z AUTO 27005KT 10SM FEW042 OVC049 M01/M05 A2963 RMK AO2 SLP039 T10111050 FZRANO TSNO $
PAOO 241456Z AUTO 28014KT 10SM OVC049 01/M05 A2964 RMK AO2 RAB01E24SNE16 SLP042 P0000 60000 T00061050 58004 FZRANO TSNO $
PAOO 241356Z AUTO 25011KT 10SM -SN FEW024 SCT041 OVC055 01/M03 A2966 RMK AO2 UPB33E50SNB50 SLP048 P0000 T00061033 FZRANO TSNO $
PAOO 241256Z AUTO 28014KT 10SM FEW034 OVC060 00/M04 A2966 RMK AO2 SLP047 T00001039 FZRANO TSNO $
PAOO 241156Z AUTO 28010KT 10SM FEW033 OVC060 01/M03 A2965 RMK AO2 UPB1058E07RAB25E35SNE1058 SLP046 P0000 60000 T00061033 10011 21011 53013 FZRANO TSNO $